Time;durP1;ratioP1;P1;durP2;ratioP2;P2;SDS_P1;SDS_P2;PMS_P1;PMS_P2;Temp;Humidity;BMP_temperature;BMP_pressure;BME280_temperature;BME280_humidity;BME280_pressure;Samples;Min_cycle;Max_cycle;Signal;HPM_P1;HPM_P2
2022/09/15 00:00:10;;;;;;;8.65;4.18;;;;;;;16.82;60.46;98817.38;5113984;28;20104;-61
2022/09/15 00:02:37;;;;;;;10.73;4.25;;;;;;;16.83;60.02;98812.91;5114367;28;20098;-61
2022/09/15 00:05:04;;;;;;;6.68;3.60;;;;;;;16.80;60.03;98812.25;5114093;28;20126;-62
2022/09/15 00:07:30;;;;;;;8.10;3.92;;;;;;;16.79;60.07;98807.91;5114114;28;20127;-61
2022/09/15 00:09:57;;;;;;;11.52;4.00;;;;;;;16.79;59.93;98818.53;5113905;28;20089;-61
2022/09/15 00:12:24;;;;;;;8.63;4.05;;;;;;;16.78;60.12;98813.34;5113922;28;20051;-61
2022/09/15 00:14:50;;;;;;;9.10;3.63;;;;;;;16.77;59.87;98815.19;5112642;28;20495;-62
2022/09/15 00:17:17;;;;;;;6.32;3.70;;;;;;;16.75;59.86;98811.84;5112605;28;20087;-61
2022/09/15 00:19:44;;;;;;;7.35;3.83;;;;;;;16.74;59.69;98815.50;5113816;28;20048;-62
2022/09/15 00:22:11;;;;;;;9.65;4.35;;;;;;;16.73;59.78;98819.13;5113802;28;20074;-61
2022/09/15 00:24:37;;;;;;;7.07;3.67;;;;;;;16.71;59.85;98818.44;5113682;28;20097;-61
2022/09/15 00:27:04;;;;;;;11.23;3.78;;;;;;;16.70;59.99;98815.97;5113585;28;20142;-62
2022/09/15 00:29:30;;;;;;;6.05;3.72;;;;;;;16.69;59.85;98828.41;5113559;28;20044;-61
2022/09/15 00:31:57;;;;;;;7.18;3.97;;;;;;;16.66;59.77;98823.38;5113769;28;20142;-62
2022/09/15 00:34:24;;;;;;;9.27;4.25;;;;;;;16.64;59.81;98831.50;5113566;28;20529;-61
2022/09/15 00:36:50;;;;;;;9.18;4.18;;;;;;;16.62;59.94;98828.16;5113594;28;20078;-63
2022/09/15 00:39:17;;;;;;;7.15;3.80;;;;;;;16.59;59.79;98832.94;5112992;28;20582;-61
2022/09/15 00:41:44;;;;;;;6.88;4.10;;;;;;;16.57;60.06;98832.25;5113463;28;20048;-61
2022/09/15 00:44:22;;;;;;;7.35;3.72;;;;;;;16.50;60.97;98829.34;5113384;28;20082;-60
2022/09/15 00:46:52;;;;;;;5.53;3.38;;;;;;;16.50;60.59;98830.19;5113537;28;20086;-60
2022/09/15 00:49:40;;;;;;;5.85;3.15;;;;;;;16.50;60.17;98830.19;5111999;28;20079;-62
2022/09/15 00:52:11;;;;;;;4.55;2.85;;;;;;;16.48;60.63;98832.16;5113319;28;20047;-61
2022/09/15 00:54:55;;;;;;;5.57;2.80;;;;;;;16.48;60.71;98834.81;5146173;27;20050;-61
2022/09/15 00:57:31;;;;;;;7.32;3.35;;;;;;;16.48;60.91;98831.34;5113347;28;20075;-62
2022/09/15 01:00:01;;;;;;;6.13;3.40;;;;;;;16.49;60.59;98825.84;5113057;28;20051;-62
2022/09/15 01:02:32;;;;;;;8.60;3.15;;;;;;;16.50;60.90;98832.00;5113019;28;20090;-61
2022/09/15 01:05:01;;;;;;;6.68;2.97;;;;;;;16.53;60.91;98831.72;5112062;28;20384;-61
2022/09/15 01:07:38;;;;;;;5.32;2.83;;;;;;;16.54;61.23;98828.06;5111852;28;20081;-61
2022/09/15 01:10:11;;;;;;;5.93;2.92;;;;;;;16.59;61.13;98819.66;5112949;28;20048;-62
2022/09/15 01:12:40;;;;;;;6.53;2.90;;;;;;;16.64;61.12;98820.88;5112922;28;20044;-62
2022/09/15 01:15:07;;;;;;;5.53;3.00;;;;;;;16.68;61.08;98818.75;5112690;28;20134;-60
2022/09/15 01:17:52;;;;;;;5.45;3.38;;;;;;;16.70;61.92;98816.78;5113013;28;20142;-62
2022/09/15 01:20:28;;;;;;;6.85;3.17;;;;;;;16.75;61.41;98817.16;5112609;28;20086;-61
2022/09/15 01:23:11;;;;;;;7.03;3.03;;;;;;;16.82;61.16;98813.91;5112707;28;20134;-62
2022/09/15 01:25:50;;;;;;;3.53;2.60;;;;;;;16.87;61.20;98820.44;5112880;28;20083;-61
2022/09/15 01:28:38;;;;;;;3.22;2.08;;;;;;;16.87;60.97;98815.13;5112603;28;20049;-61
2022/09/15 01:31:23;;;;;;;6.47;2.70;;;;;;;16.91;60.70;98823.63;5112546;28;20126;-61
2022/09/15 01:34:05;;;;;;;4.88;2.33;;;;;;;16.97;60.38;98822.19;5112306;28;20047;-61
2022/09/15 01:36:48;;;;;;;4.57;2.72;;;;;;;16.94;60.58;98816.19;5112612;28;20147;-62
2022/09/15 01:39:20;;;;;;;4.88;2.05;;;;;;;16.99;60.48;98817.53;5112201;28;20483;-63
2022/09/15 01:41:52;;;;;;;6.07;2.33;;;;;;;17.00;60.36;98819.19;5112627;28;20101;-61
2022/09/15 01:44:25;;;;;;;4.25;2.22;;;;;;;16.99;60.38;98815.72;5112123;28;20086;-61
2022/09/15 01:46:55;;;;;;;3.55;2.00;;;;;;;17.00;60.26;98814.75;5112290;28;20063;-62
2022/09/15 01:49:26;;;;;;;3.22;1.88;;;;;;;17.02;60.31;98807.47;5110655;28;20093;-62
2022/09/15 01:51:53;;;;;;;8.20;2.88;;;;;;;17.03;60.07;98809.13;5112241;27;20086;-61
2022/09/15 01:54:27;;;;;;;5.30;1.92;;;;;;;17.02;60.42;98806.63;5111924;28;20143;-64
2022/09/15 01:56:53;;;;;;;3.40;1.95;;;;;;;17.05;60.11;98806.34;5110712;28;20160;-61
2022/09/15 01:59:20;;;;;;;6.65;2.80;;;;;;;17.05;59.98;98804.50;5111554;28;20521;-61
2022/09/15 02:01:56;;;;;;;4.00;2.05;;;;;;;17.05;60.11;98809.00;5112046;28;20134;-62
2022/09/15 02:04:40;;;;;;;4.13;2.20;;;;;;;17.06;59.85;98808.84;5111944;28;20055;-63
2022/09/15 02:07:34;;;;;;;3.42;1.65;;;;;;;17.05;59.91;98820.47;5110576;28;20073;-61
2022/09/15 02:10:04;;;;;;;3.85;1.63;;;;;;;17.09;59.80;98814.84;5111465;28;20055;-62
2022/09/15 02:12:57;;;;;;;1.90;1.27;;;;;;;17.09;59.68;98820.16;5112221;28;20083;-61
2022/09/15 02:15:27;;;;;;;6.35;2.03;;;;;;;17.10;59.43;98816.50;5112026;28;20077;-61
2022/09/15 02:17:56;;;;;;;4.30;2.15;;;;;;;17.08;59.37;98818.50;5111768;28;20075;-60
2022/09/15 02:20:39;;;;;;;3.63;1.83;;;;;;;17.04;59.55;98823.22;5111507;28;20062;-63
2022/09/15 02:23:19;;;;;;;3.45;1.85;;;;;;;17.03;59.73;98825.06;5144595;27;20555;-62
2022/09/15 02:25:54;;;;;;;1.88;1.67;;;;;;;17.03;59.66;98830.38;5111782;28;20159;-61
2022/09/15 02:28:27;;;;;;;2.22;1.70;;;;;;;17.02;59.74;98817.25;5111506;28;20283;-62
2022/09/15 02:30:57;;;;;;;4.13;1.95;;;;;;;17.01;59.47;98813.75;5111240;28;20534;-63
2022/09/15 02:33:31;;;;;;;3.83;1.88;;;;;;;17.00;59.47;98813.88;5110462;28;20082;-62
2022/09/15 02:35:58;;;;;;;5.53;1.92;;;;;;;16.99;59.39;98809.56;5111341;28;20090;-61
2022/09/15 02:38:28;;;;;;;2.78;1.75;;;;;;;16.97;59.60;98809.72;5109759;28;20055;-64
2022/09/15 02:40:55;;;;;;;6.85;1.88;;;;;;;16.95;59.57;98814.38;5110348;28;20138;-63
2022/09/15 02:43:22;;;;;;;5.40;2.00;;;;;;;16.94;59.71;98820.69;5111491;28;20082;-61
2022/09/15 02:45:49;;;;;;;5.75;1.80;;;;;;;16.92;59.80;98815.50;5111241;28;20079;-60
2022/09/15 02:48:16;;;;;;;3.80;1.67;;;;;;;16.91;59.66;98813.00;5110908;28;20135;-61
2022/09/15 02:50:43;;;;;;;4.38;2.10;;;;;;;16.91;59.91;98810.34;5110960;28;20550;-60
2022/09/15 02:53:09;;;;;;;4.05;2.00;;;;;;;16.90;59.90;98814.00;5111024;28;20134;-61
2022/09/15 02:55:36;;;;;;;5.63;2.03;;;;;;;16.90;60.03;98814.81;5111059;28;20092;-62
2022/09/15 02:58:02;;;;;;;3.35;2.00;;;;;;;16.90;59.91;98806.00;5110906;28;20082;-61
2022/09/15 03:00:29;;;;;;;17.88;2.00;;;;;;;16.89;59.78;98814.97;5110843;28;20047;-63
2022/09/15 03:02:57;;;;;;;3.60;1.75;;;;;;;16.88;59.81;98818.59;5109632;28;20138;-61
2022/09/15 03:05:28;;;;;;;3.85;1.88;;;;;;;16.87;60.03;98816.94;5110874;28;20076;-61
2022/09/15 03:07:55;;;;;;;3.13;1.70;;;;;;;16.87;59.99;98814.28;5109937;28;20138;-62
2022/09/15 03:10:23;;;;;;;3.38;1.70;;;;;;;16.86;60.07;98821.41;5110738;28;20139;-63
2022/09/15 03:12:51;;;;;;;4.28;2.00;;;;;;;16.85;60.01;98818.94;5111019;28;20051;-61
2022/09/15 03:15:21;;;;;;;3.85;1.80;;;;;;;16.84;60.14;98819.91;5109596;28;20083;-64
2022/09/15 03:17:48;;;;;;;5.63;2.00;;;;;;;16.83;60.13;98824.41;5109467;28;20090;-60
2022/09/15 03:20:19;;;;;;;4.72;2.03;;;;;;;16.80;60.27;98825.53;5110566;28;20564;-61
2022/09/15 03:22:46;;;;;;;3.13;1.88;;;;;;;16.81;60.19;98829.00;5110687;28;20565;-61
2022/09/15 03:25:13;;;;;;;4.45;2.17;;;;;;;16.79;60.19;98831.81;5110672;28;20047;-62
2022/09/15 03:27:39;;;;;;;2.90;2.00;;;;;;;16.77;60.19;98831.13;5110786;28;20079;-62
2022/09/15 03:30:07;;;;;;;3.38;2.03;;;;;;;16.76;60.32;98824.16;5112976;28;20135;-62
2022/09/15 03:32:34;;;;;;;4.05;2.20;;;;;;;16.74;60.46;98826.13;5113438;28;20093;-62
2022/09/15 03:35:00;;;;;;;4.28;2.30;;;;;;;16.74;60.38;98827.97;5114918;27;20138;-61
2022/09/15 03:37:27;;;;;;;4.05;2.40;;;;;;;16.74;60.41;98833.28;5114886;28;20082;-60
2022/09/15 03:39:53;;;;;;;4.03;2.30;;;;;;;16.73;60.26;98827.13;5114624;28;20086;-60
2022/09/15 03:42:20;;;;;;;2.67;2.00;;;;;;;16.70;60.31;98829.25;5114500;28;20495;-61
2022/09/15 03:44:47;;;;;;;3.00;2.10;;;;;;;16.67;60.12;98833.84;5114544;28;20047;-62
2022/09/15 03:47:13;;;;;;;3.28;2.03;;;;;;;16.62;60.17;98824.66;5114388;28;20097;-62
2022/09/15 03:49:40;;;;;;;5.05;2.40;;;;;;;16.59;60.43;98830.28;5114365;28;20082;-61
2022/09/15 03:52:07;;;;;;;3.42;2.30;;;;;;;16.56;60.58;98820.78;5114237;28;20606;-61
2022/09/15 03:54:34;;;;;;;4.63;2.20;;;;;;;16.53;60.78;98821.09;5114557;28;20483;-61
2022/09/15 03:57:01;;;;;;;4.60;2.38;;;;;;;16.49;60.87;98817.88;5114465;28;20048;-62
2022/09/15 03:59:27;;;;;;;3.95;2.72;;;;;;;16.49;60.97;98822.38;5114082;28;20051;-61
2022/09/15 04:01:54;;;;;;;3.05;2.42;;;;;;;16.47;60.82;98822.53;5114089;28;20083;-62
2022/09/15 04:04:20;;;;;;;6.00;2.05;;;;;;;16.46;61.13;98818.19;5114261;28;20407;-61
2022/09/15 04:06:47;;;;;;;4.38;2.60;;;;;;;16.46;61.24;98814.69;5114176;28;20142;-61
2022/09/15 04:09:14;;;;;;;7.18;2.70;;;;;;;16.46;61.33;98818.19;5112645;28;20134;-64
2022/09/15 04:11:40;;;;;;;5.95;2.60;;;;;;;16.48;61.39;98816.22;5114055;28;20105;-61
2022/09/15 04:14:07;;;;;;;4.22;2.40;;;;;;;16.50;61.53;98821.38;5113945;28;20055;-62
2022/09/15 04:16:33;;;;;;;5.40;2.50;;;;;;;16.51;61.48;98810.63;5112910;28;20083;-62
2022/09/15 04:19:00;;;;;;;6.65;2.63;;;;;;;16.53;61.53;98818.44;5113757;28;20055;-62
2022/09/15 04:21:27;;;;;;;5.22;2.60;;;;;;;16.55;61.54;98816.44;5112610;28;20134;-62
2022/09/15 04:23:53;;;;;;;7.32;2.55;;;;;;;16.56;61.38;98818.13;5113872;28;20138;-61
2022/09/15 04:26:30;;;;;;;4.18;2.83;;;;;;;16.56;61.34;98819.97;5113677;28;20079;-61
2022/09/15 04:28:57;;;;;;;2.92;2.33;;;;;;;16.58;61.27;98825.94;5112135;28;20044;-61
2022/09/15 04:31:29;;;;;;;3.97;2.33;;;;;;;16.57;61.21;98825.13;5112545;28;20491;-61
2022/09/15 04:33:56;;;;;;;3.40;2.60;;;;;;;16.56;61.24;98828.75;5113654;28;20147;-61
2022/09/15 04:36:26;;;;;;;5.38;2.90;;;;;;;16.55;61.57;98835.06;5113666;28;20476;-62
2022/09/15 04:38:52;;;;;;;5.25;2.63;;;;;;;16.56;61.55;98835.91;5113243;28;20086;-61
2022/09/15 04:41:19;;;;;;;4.05;2.80;;;;;;;16.57;61.63;98837.56;5112100;28;20047;-61
2022/09/15 04:43:46;;;;;;;3.70;2.80;;;;;;;16.59;61.46;98835.59;5112339;28;20047;-63
2022/09/15 04:46:13;;;;;;;3.38;2.72;;;;;;;16.59;61.62;98832.94;5113793;28;20055;-60
2022/09/15 04:48:40;;;;;;;5.63;2.88;;;;;;;16.60;61.52;98835.44;5111934;28;20043;-62
2022/09/15 04:51:10;;;;;;;7.80;2.78;;;;;;;16.61;61.54;98828.31;5113158;28;20142;-61
2022/09/15 04:53:37;;;;;;;4.35;2.67;;;;;;;16.61;61.34;98834.47;5113391;28;20060;-61
2022/09/15 04:56:06;;;;;;;7.60;2.90;;;;;;;16.62;61.63;98835.28;5113112;28;20087;-61
2022/09/15 04:58:43;;;;;;;3.20;2.50;;;;;;;16.59;62.06;98830.28;5113023;28;20130;-61
2022/09/15 05:01:15;;;;;;;3.42;2.33;;;;;;;16.62;61.54;98835.28;5113046;28;20091;-61
2022/09/15 05:03:43;;;;;;;3.23;2.27;;;;;;;16.61;61.56;98831.81;5111932;28;20131;-61
2022/09/15 05:06:12;;;;;;;10.50;3.00;;;;;;;16.60;61.52;98838.09;5111658;28;20799;-63
2022/09/15 05:08:39;;;;;;;3.67;2.25;;;;;;;16.60;61.54;98843.41;5111449;28;20055;-62
2022/09/15 05:11:11;;;;;;;6.10;2.55;;;;;;;16.58;61.50;98844.53;5111574;28;20126;-61
2022/09/15 05:13:38;;;;;;;7.53;2.60;;;;;;;16.58;61.74;98840.06;5112795;28;20235;-61
2022/09/15 05:16:14;;;;;;;4.35;2.60;;;;;;;16.55;62.20;98835.06;5112198;28;20130;-63
2022/09/15 05:18:42;;;;;;;3.47;2.47;;;;;;;16.58;61.75;98836.56;5110893;28;20401;-60
2022/09/15 05:21:12;;;;;;;4.05;2.58;;;;;;;16.59;61.86;98841.75;5112450;28;20098;-61
2022/09/15 05:23:38;;;;;;;6.28;2.50;;;;;;;16.60;61.83;98843.41;5112476;28;20616;-62
2022/09/15 05:26:07;;;;;;;5.18;2.15;;;;;;;16.61;62.09;98845.09;5112411;28;20051;-63
2022/09/15 05:28:36;;;;;;;4.68;2.35;;;;;;;16.63;61.94;98840.44;5112474;28;20131;-62
2022/09/15 05:31:08;;;;;;;9.02;2.60;;;;;;;16.62;62.28;98837.94;5111133;28;20097;-61
2022/09/15 05:33:35;;;;;;;5.13;2.10;;;;;;;16.66;61.98;98842.81;5112478;28;20051;-63
2022/09/15 05:36:02;;;;;;;4.72;2.15;;;;;;;16.68;61.82;98842.69;5112295;28;20135;-60
2022/09/15 05:38:30;;;;;;;5.28;2.28;;;;;;;16.68;61.78;98838.19;5112238;28;20554;-60
2022/09/15 05:41:02;;;;;;;4.95;2.30;;;;;;;16.67;62.21;98840.97;5111313;28;20100;-62
2022/09/15 05:43:30;;;;;;;4.95;2.10;;;;;;;16.70;61.76;98846.00;5111772;28;20495;-60
2022/09/15 05:45:57;;;;;;;6.72;2.05;;;;;;;16.68;61.85;98843.50;5112102;28;20082;-61
2022/09/15 05:48:24;;;;;;;4.60;1.73;;;;;;;16.70;61.71;98839.88;5110901;28;20120;-61
2022/09/15 05:50:53;;;;;;;3.33;1.67;;;;;;;16.70;61.95;98842.53;5111321;28;20077;-61
2022/09/15 05:53:20;;;;;;;5.40;1.92;;;;;;;16.71;62.01;98845.00;5112018;28;20074;-61
2022/09/15 05:55:48;;;;;;;3.78;1.85;;;;;;;16.74;61.70;98846.56;5111838;28;20545;-62
2022/09/15 05:58:14;;;;;;;3.95;1.90;;;;;;;16.75;61.86;98843.72;5112252;28;20090;-66
2022/09/15 06:00:41;;;;;;;4.18;2.00;;;;;;;16.77;61.83;98849.75;5111629;28;20134;-62
2022/09/15 06:03:13;;;;;;;5.25;1.83;;;;;;;16.77;61.82;98855.06;5112131;28;20457;-63
2022/09/15 06:05:40;;;;;;;2.40;1.73;;;;;;;16.80;61.72;98845.94;5111925;28;20050;-62
2022/09/15 06:08:07;;;;;;;4.63;1.95;;;;;;;16.83;61.60;98850.13;5110314;28;20065;-61
2022/09/15 06:10:33;;;;;;;3.88;1.65;;;;;;;16.84;61.67;98846.47;5111516;28;20487;-61
2022/09/15 06:13:00;;;;;;;4.82;1.83;;;;;;;16.87;61.59;98855.00;5111632;28;20143;-62
2022/09/15 06:15:26;;;;;;;4.82;1.70;;;;;;;16.87;61.58;98856.81;5111960;28;20086;-62
2022/09/15 06:17:53;;;;;;;2.70;1.50;;;;;;;16.88;61.52;98847.84;5111759;28;20055;-62
2022/09/15 06:20:20;;;;;;;3.20;1.63;;;;;;;16.90;61.72;98845.88;5111418;28;20127;-61
2022/09/15 06:22:46;;;;;;;4.75;1.95;;;;;;;16.93;61.64;98842.91;5111423;27;20112;-61
2022/09/15 06:25:14;;;;;;;6.97;2.25;;;;;;;16.97;61.69;98862.06;5111823;28;20091;-61
2022/09/15 06:27:40;;;;;;;4.03;1.58;;;;;;;17.00;61.82;98859.09;5111249;28;20090;-62
2022/09/15 06:30:09;;;;;;;6.57;2.13;;;;;;;17.03;61.88;98864.94;5109840;28;20082;-61
2022/09/15 06:32:36;;;;;;;5.53;1.80;;;;;;;17.08;61.81;98861.84;5111464;28;20050;-61
2022/09/15 06:35:06;;;;;;;4.82;1.95;;;;;;;17.14;61.65;98863.06;5111326;28;20048;-61
2022/09/15 06:37:33;;;;;;;3.35;1.50;;;;;;;17.18;61.62;98864.44;5111280;28;20055;-62
2022/09/15 06:40:00;;;;;;;4.13;1.95;;;;;;;17.23;61.45;98861.34;5111026;28;20112;-62
2022/09/15 06:42:27;;;;;;;5.78;1.67;;;;;;;17.26;61.25;98869.00;5111035;28;20048;-61
2022/09/15 06:44:53;;;;;;;3.72;1.55;;;;;;;17.29;61.52;98874.00;5111301;28;20094;-61
2022/09/15 06:47:20;;;;;;;4.63;1.73;;;;;;;17.34;61.24;98876.22;5111184;28;20087;-63
2022/09/15 06:49:46;;;;;;;5.45;1.77;;;;;;;17.36;61.07;98879.56;5110901;28;20472;-60
2022/09/15 06:52:13;;;;;;;3.97;1.48;;;;;;;17.38;60.82;98874.94;5111103;28;20083;-62
2022/09/15 06:54:39;;;;;;;5.55;1.70;;;;;;;17.40;60.79;98878.25;5110893;28;20101;-61
2022/09/15 06:57:06;;;;;;;2.58;1.20;;;;;;;17.41;60.63;98879.91;5110999;28;20472;-61
2022/09/15 06:59:32;;;;;;;4.40;1.88;;;;;;;17.43;60.49;98888.59;5110741;28;20043;-61
2022/09/15 07:01:59;;;;;;;5.47;1.70;;;;;;;17.43;60.73;98885.94;5111112;28;20051;-64
2022/09/15 07:04:30;;;;;;;4.28;1.73;;;;;;;17.43;60.75;98884.09;5110421;28;20048;-61
2022/09/15 07:06:57;;;;;;;4.78;1.83;;;;;;;17.44;60.48;98896.44;5111032;28;20083;-61
2022/09/15 07:09:23;;;;;;;3.67;1.70;;;;;;;17.45;60.78;98898.09;5110531;28;20134;-62
2022/09/15 07:11:50;;;;;;;3.53;1.65;;;;;;;17.48;60.83;98901.44;5111127;28;20104;-61
2022/09/15 07:14:16;;;;;;;9.07;1.77;;;;;;;17.50;60.70;98894.13;5110984;28;20091;-62
2022/09/15 07:16:43;;;;;;;5.07;2.05;;;;;;;17.51;60.91;98888.66;5111334;28;20143;-61
2022/09/15 07:19:09;;;;;;;5.20;2.30;;;;;;;17.55;60.96;98892.69;5110653;28;20091;-63
2022/09/15 07:21:36;;;;;;;6.57;1.80;;;;;;;17.60;61.10;98889.56;5110758;28;20135;-61
2022/09/15 07:24:03;;;;;;;6.78;1.88;;;;;;;17.64;61.17;98890.09;5110554;28;20048;-61
2022/09/15 07:26:33;;;;;;;10.38;2.13;;;;;;;17.70;61.10;98895.63;5110912;28;20086;-61
2022/09/15 07:29:03;;;;;;;4.88;1.65;;;;;;;17.74;60.92;98890.81;5110616;28;20126;-62
2022/09/15 07:31:32;;;;;;;8.93;1.80;;;;;;;17.82;60.70;98896.22;5110966;28;20098;-64
2022/09/15 07:33:59;;;;;;;3.38;1.60;;;;;;;17.91;60.38;98901.59;5110789;28;20403;-61
2022/09/15 07:36:27;;;;;;;5.60;1.63;;;;;;;17.98;60.72;98899.94;5110559;28;20043;-62
2022/09/15 07:38:53;;;;;;;6.00;1.33;;;;;;;18.05;60.38;98897.53;5110750;28;20130;-61
2022/09/15 07:41:22;;;;;;;6.40;1.63;;;;;;;18.13;60.48;98902.91;5110604;28;20050;-62
2022/09/15 07:43:51;;;;;;;4.20;1.48;;;;;;;18.23;60.58;98905.47;5109360;28;20090;-61
2022/09/15 07:46:19;;;;;;;7.97;1.58;;;;;;;18.31;59.93;98889.53;5110693;28;20316;-60
2022/09/15 07:48:48;;;;;;;6.88;1.75;;;;;;;18.38;59.04;98887.06;5110627;28;20079;-62
2022/09/15 07:51:15;;;;;;;3.50;1.30;;;;;;;18.44;58.93;98886.44;5110523;28;20475;-61
2022/09/15 07:53:44;;;;;;;6.22;1.10;;;;;;;18.47;57.82;98886.09;5110814;28;20081;-61
2022/09/15 07:56:11;;;;;;;4.07;1.35;;;;;;;18.49;57.91;98899.25;5110394;28;20135;-61
2022/09/15 07:58:37;;;;;;;4.57;1.23;;;;;;;18.51;57.48;98897.28;5110375;28;20144;-62
2022/09/15 08:01:06;;;;;;;3.70;1.30;;;;;;;18.52;57.14;98909.59;5110255;28;20130;-61
2022/09/15 08:03:33;;;;;;;3.97;1.05;;;;;;;18.55;57.11;98913.78;5109145;28;20043;-61
2022/09/15 08:06:01;;;;;;;3.42;1.40;;;;;;;18.55;56.77;98905.78;5110246;28;20102;-61
2022/09/15 08:08:28;;;;;;;4.13;1.40;;;;;;;18.57;56.36;98917.94;5110580;28;20138;-61
2022/09/15 08:10:55;;;;;;;6.40;1.10;;;;;;;18.59;56.43;98910.66;5109113;28;20476;-61
2022/09/15 08:13:23;;;;;;;4.35;0.95;;;;;;;18.62;56.64;98918.28;5110384;28;20083;-60
2022/09/15 08:15:50;;;;;;;3.65;1.02;;;;;;;18.67;56.16;98909.84;5113123;28;20084;-61
2022/09/15 08:18:16;;;;;;;6.30;1.33;;;;;;;18.72;56.23;98922.66;5114024;28;20171;-61
2022/09/15 08:20:43;;;;;;;5.10;1.17;;;;;;;18.77;55.88;98914.19;5114042;28;20055;-61
2022/09/15 08:23:10;;;;;;;4.85;1.73;;;;;;;18.81;55.73;98923.53;5113744;28;20091;-61
2022/09/15 08:25:38;;;;;;;6.32;1.60;;;;;;;18.83;55.43;98918.88;5112469;28;20079;-65
2022/09/15 08:28:05;;;;;;;3.53;1.20;;;;;;;18.86;55.75;98927.38;5113516;28;20542;-61
2022/09/15 08:30:31;;;;;;;3.03;1.17;;;;;;;18.89;55.22;98931.56;5113663;28;20130;-61
2022/09/15 08:32:58;;;;;;;3.78;1.05;;;;;;;18.93;55.45;98929.41;5113584;28;20083;-62
2022/09/15 08:35:24;;;;;;;4.35;1.35;;;;;;;18.97;54.93;98936.06;5113845;28;20069;-62
2022/09/15 08:37:53;;;;;;;2.40;1.00;;;;;;;18.99;54.49;98937.56;5113709;28;20547;-61
2022/09/15 08:40:34;;;;;;;6.22;1.60;;;;;;;18.99;54.44;98937.56;5113507;28;20090;-61
2022/09/15 08:43:13;;;;;;;4.97;1.38;;;;;;;19.06;53.67;98940.47;5113429;28;20085;-61
2022/09/15 08:45:57;;;;;;;3.65;1.30;;;;;;;19.07;54.46;98944.81;5113699;28;20134;-62
2022/09/15 08:48:30;;;;;;;7.90;1.35;;;;;;;19.14;54.29;98940.47;5111886;28;20498;-61
2022/09/15 08:51:02;;;;;;;7.10;1.35;;;;;;;19.18;54.38;98948.16;5113249;28;20090;-62
2022/09/15 08:53:37;;;;;;;6.87;1.07;;;;;;;19.23;53.98;98938.69;5111871;28;20529;-62
2022/09/15 08:56:13;;;;;;;3.45;1.05;;;;;;;19.30;53.66;98940.69;5113472;28;20048;-61
2022/09/15 08:58:40;;;;;;;8.23;1.40;;;;;;;19.35;54.08;98944.53;5111828;28;20452;-61
2022/09/15 09:01:09;;;;;;;6.15;1.60;;;;;;;19.40;53.60;98946.72;5113246;28;20091;-62
2022/09/15 09:03:59;;;;;;;3.75;1.08;;;;;;;19.46;54.48;98950.53;5113078;28;20055;-62
2022/09/15 09:06:38;;;;;;;4.63;1.02;;;;;;;19.60;54.12;98955.22;5113417;28;20091;-62
2022/09/15 09:09:18;;;;;;;9.43;1.63;;;;;;;19.72;53.54;98947.72;5112913;28;20094;-61
2022/09/15 09:12:22;;;;;;;3.65;1.10;;;;;;;19.83;52.67;98954.56;5112978;28;20083;-61
2022/09/15 09:15:18;;;;;;;2.75;0.90;;;;;;;19.97;52.76;98955.72;5113375;28;20056;-61
2022/09/15 09:18:10;;;;;;;6.53;1.60;;;;;;;20.10;52.66;98955.22;5112849;28;20120;-60
2022/09/15 09:20:36;;;;;;;5.97;1.30;;;;;;;20.27;53.37;98952.53;5112687;28;20551;-61
2022/09/15 09:23:08;;;;;;;6.22;1.00;;;;;;;20.35;52.39;98943.66;5112738;28;20142;-62
2022/09/15 09:25:35;;;;;;;5.55;1.65;;;;;;;20.44;53.11;98946.13;5111224;28;20087;-61
2022/09/15 09:28:04;;;;;;;6.68;1.65;;;;;;;20.54;52.23;98950.44;5112149;28;20083;-61
2022/09/15 09:30:33;;;;;;;4.43;1.27;;;;;;;20.61;51.67;98940.72;5145586;27;20100;-62
2022/09/15 09:33:18;;;;;;;4.88;1.40;;;;;;;20.68;51.82;98948.88;5113167;28;20603;-62
2022/09/15 09:35:48;;;;;;;2.63;1.17;;;;;;;20.74;50.63;98944.69;5112944;28;20047;-61
2022/09/15 09:38:21;;;;;;;5.35;1.33;;;;;;;20.79;49.49;98950.34;5112313;28;20090;-62
2022/09/15 09:40:48;;;;;;;8.30;1.40;;;;;;;20.84;50.64;98947.97;5112539;28;20139;-62
2022/09/15 09:43:15;;;;;;;6.20;1.20;;;;;;;20.88;50.00;98945.81;5112232;28;20083;-63
2022/09/15 09:45:42;;;;;;;3.30;1.10;;;;;;;20.89;49.73;98947.50;5112608;28;20472;-61
2022/09/15 09:48:20;;;;;;;4.35;1.05;;;;;;;20.86;48.90;98942.47;5112166;28;20152;-63
2022/09/15 09:50:48;;;;;;;5.60;1.17;;;;;;;20.91;49.22;98956.16;5112227;28;20130;-61
2022/09/15 09:53:27;;;;;;;5.13;1.15;;;;;;;20.86;48.18;98953.16;5110928;28;20547;-62
2022/09/15 09:56:15;;;;;;;5.97;1.17;;;;;;;20.80;48.53;98954.69;5112198;28;20056;-61
2022/09/15 09:58:41;;;;;;;3.88;1.02;;;;;;;20.83;48.83;98957.84;5112010;28;20212;-61
2022/09/15 10:01:11;;;;;;;5.25;1.17;;;;;;;20.78;48.31;98964.72;5111838;28;20090;-62
2022/09/15 10:03:38;;;;;;;5.75;1.10;;;;;;;20.73;48.44;98959.03;5110789;28;20051;-61
2022/09/15 10:06:14;;;;;;;8.38;1.60;;;;;;;20.69;47.88;98958.56;5111837;28;20559;-62
2022/09/15 10:09:05;;;;;;;4.35;0.90;;;;;;;20.62;47.91;98955.75;5111866;28;20079;-61
2022/09/15 10:11:48;;;;;;;4.45;0.90;;;;;;;20.64;48.11;98951.06;5111862;28;20075;-62
2022/09/15 10:14:36;;;;;;;4.78;1.27;;;;;;;20.67;49.15;98950.72;5110750;28;20055;-62
2022/09/15 10:17:19;;;;;;;3.50;0.98;;;;;;;20.77;48.64;98955.88;5110390;28;20452;-61
2022/09/15 10:19:54;;;;;;;3.25;0.88;;;;;;;20.88;48.91;98951.16;5111561;28;20075;-61
2022/09/15 10:22:35;;;;;;;3.08;1.02;;;;;;;20.93;48.73;98949.63;5110612;28;20063;-63
2022/09/15 10:25:18;;;;;;;4.90;1.30;;;;;;;21.03;49.04;98954.75;5111634;28;20043;-63
2022/09/15 10:28:01;;;;;;;4.85;0.98;;;;;;;21.12;48.74;98947.50;5111763;28;20079;-61
2022/09/15 10:30:28;;;;;;;3.78;1.33;;;;;;;21.26;48.13;98937.91;5111501;28;20143;-61
2022/09/15 10:32:56;;;;;;;6.32;1.40;;;;;;;21.35;48.98;98942.19;5111442;28;20051;-61
2022/09/15 10:35:23;;;;;;;3.25;0.95;;;;;;;21.44;48.68;98942.97;5111232;28;20097;-62
2022/09/15 10:38:09;;;;;;;4.68;1.30;;;;;;;21.50;46.92;98937.91;5111238;28;20134;-62
2022/09/15 10:40:50;;;;;;;3.92;0.98;;;;;;;21.60;46.74;98939.31;5110167;28;20082;-63
2022/09/15 10:43:54;;;;;;;6.45;1.13;;;;;;;21.66;47.44;98935.09;5111377;28;20079;-62
2022/09/15 10:46:22;;;;;;;;;;;;;;;21.77;48.81;98943.75;5111970;28;20105;-62
2022/09/15 10:49:04;;;;;;;3.45;0.93;;;;;;;21.86;47.16;98937.28;5111096;28;19978;-61
2022/09/15 10:51:45;;;;;;;3.80;0.95;;;;;;;21.93;47.11;98932.88;5109826;28;20086;-61
2022/09/15 10:54:12;;;;;;;3.80;1.02;;;;;;;22.07;47.88;98933.09;5111071;28;20142;-64
2022/09/15 10:57:00;;;;;;;3.83;1.00;;;;;;;22.16;47.91;98934.66;5110908;28;20101;-61
2022/09/15 10:59:42;;;;;;;2.53;1.05;;;;;;;22.36;47.14;98940.31;5109704;28;20134;-61
2022/09/15 11:02:46;;;;;;;5.30;1.40;;;;;;;22.58;46.93;98951.13;5111071;28;20086;-61
2022/09/15 11:05:35;;;;;;;3.55;1.20;;;;;;;22.82;45.98;98934.94;5111271;28;20077;-61
2022/09/15 11:08:07;;;;;;;3.67;0.82;;;;;;;23.11;45.86;98942.09;5110884;28;20078;-61
2022/09/15 11:10:49;;;;;;;2.25;1.05;;;;;;;23.47;46.35;98932.34;5110838;28;20142;-61
2022/09/15 11:13:49;;;;;;;6.55;1.40;;;;;;;23.93;45.56;98930.25;5110836;28;20083;-62
2022/09/15 11:16:42;;;;;;;5.38;1.10;;;;;;;24.22;44.26;98928.38;5077155;28;20443;-61
2022/09/15 11:19:23;;;;;;;4.97;1.35;;;;;;;24.33;43.69;98927.84;5110607;28;20043;-62
2022/09/15 11:21:54;;;;;;;4.57;1.20;;;;;;;24.36;42.03;98934.69;5111255;28;20516;-62
2022/09/15 11:24:30;;;;;;;2.03;0.98;;;;;;;24.26;42.98;98931.53;5109710;28;20110;-61
2022/09/15 11:27:10;;;;;;;3.60;0.88;;;;;;;24.02;41.68;98936.28;5109770;28;20094;-64
2022/09/15 11:29:42;;;;;;;3.88;1.00;;;;;;;23.85;42.45;98933.91;5110634;28;20093;-62
2022/09/15 11:32:16;;;;;;;3.67;1.15;;;;;;;23.59;42.08;98945.28;5109581;28;20552;-63
2022/09/15 11:34:55;;;;;;;3.65;0.90;;;;;;;23.35;41.64;98948.16;5111040;28;20090;-63
2022/09/15 11:37:41;;;;;;;2.17;0.88;;;;;;;23.16;43.37;98945.03;5110704;28;20134;-62
2022/09/15 11:40:24;;;;;;;5.05;1.00;;;;;;;23.20;43.79;98940.13;5109155;28;20078;-61
2022/09/15 11:43:13;;;;;;;2.35;0.90;;;;;;;23.35;44.10;98931.19;5110723;28;20054;-61
2022/09/15 11:45:48;;;;;;;8.23;1.20;;;;;;;23.63;44.07;98946.53;5110714;28;20131;-62
2022/09/15 11:48:22;;;;;;;2.60;0.98;;;;;;;23.91;43.91;98948.41;5110790;28;20048;-61
2022/09/15 11:50:53;;;;;;;4.32;1.10;;;;;;;24.19;42.81;98950.31;5112305;28;20087;-61
2022/09/15 11:53:31;;;;;;;2.60;1.17;;;;;;;24.44;42.33;98957.88;5114558;28;20079;-62